sensor_id;sensor_type;location;lat;lon;timestamp;pressure;altitude;pressure_sealevel;temperature;humidity
30516;BME280;17297;54.022;10.760;2024-01-25T00:02:01;101463.03;;;11.07;62.39
30516;BME280;17297;54.022;10.760;2024-01-25T00:04:28;101466.75;;;11.06;62.44
30516;BME280;17297;54.022;10.760;2024-01-25T00:06:53;101476.69;;;11.06;62.39
30516;BME280;17297;54.022;10.760;2024-01-25T00:09:18;101475.66;;;11.07;62.40
30516;BME280;17297;54.022;10.760;2024-01-25T00:11:44;101482.72;;;11.08;62.38
30516;BME280;17297;54.022;10.760;2024-01-25T00:14:09;101483.53;;;11.08;62.34
30516;BME280;17297;54.022;10.760;2024-01-25T00:16:34;101493.31;;;11.09;62.47
30516;BME280;17297;54.022;10.760;2024-01-25T00:19:00;101498.88;;;11.08;62.36
30516;BME280;17297;54.022;10.760;2024-01-25T00:21:25;101477.16;;;11.09;62.46
30516;BME280;17297;54.022;10.760;2024-01-25T00:23:50;101485.25;;;11.09;62.44
30516;BME280;17297;54.022;10.760;2024-01-25T00:26:16;101490.63;;;11.09;62.48
30516;BME280;17297;54.022;10.760;2024-01-25T00:28:41;101504.09;;;11.09;62.31
30516;BME280;17297;54.022;10.760;2024-01-25T00:31:06;101503.06;;;11.10;62.25
30516;BME280;17297;54.022;10.760;2024-01-25T00:33:31;101514.84;;;11.09;62.15
30516;BME280;17297;54.022;10.760;2024-01-25T00:35:57;101498.03;;;11.07;62.11
30516;BME280;17297;54.022;10.760;2024-01-25T00:38:23;101510.66;;;11.07;62.23
30516;BME280;17297;54.022;10.760;2024-01-25T00:40:48;101511.50;;;11.07;62.32
30516;BME280;17297;54.022;10.760;2024-01-25T00:43:14;101503.41;;;11.07;62.10
30516;BME280;17297;54.022;10.760;2024-01-25T00:45:39;101506.09;;;11.07;62.21
30516;BME280;17297;54.022;10.760;2024-01-25T00:48:05;101524.97;;;11.07;62.11
30516;BME280;17297;54.022;10.760;2024-01-25T00:50:31;101524.13;;;11.07;62.08
30516;BME280;17297;54.022;10.760;2024-01-25T00:52:56;101519.56;;;11.07;62.14
30516;BME280;17297;54.022;10.760;2024-01-25T00:55:22;101516.03;;;11.07;62.17
30516;BME280;17297;54.022;10.760;2024-01-25T00:57:47;101520.59;;;11.06;62.15
30516;BME280;17297;54.022;10.760;2024-01-25T01:00:13;101522.25;;;11.07;62.03
30516;BME280;17297;54.022;10.760;2024-01-25T01:02:41;101526.81;;;11.07;61.93
30516;BME280;17297;54.022;10.760;2024-01-25T01:05:08;101544.84;;;11.06;61.98
30516;BME280;17297;54.022;10.760;2024-01-25T01:07:34;101548.34;;;11.07;61.97
30516;BME280;17297;54.022;10.760;2024-01-25T01:09:59;101534.22;;;11.05;61.93
30516;BME280;17297;54.022;10.760;2024-01-25T01:12:24;101544.00;;;11.06;62.00
30516;BME280;17297;54.022;10.760;2024-01-25T01:14:50;101545.81;;;11.05;61.97
30516;BME280;17297;54.022;10.760;2024-01-25T01:17:15;101544.16;;;11.04;61.83
30516;BME280;17297;54.022;10.760;2024-01-25T01:19:40;101546.84;;;11.04;62.10
30516;BME280;17297;54.022;10.760;2024-01-25T01:22:06;101548.72;;;11.04;61.90
30516;BME280;17297;54.022;10.760;2024-01-25T01:24:31;101545.19;;;11.03;61.87
30516;BME280;17297;54.022;10.760;2024-01-25T01:26:56;101545.19;;;11.03;61.84
30516;BME280;17297;54.022;10.760;2024-01-25T01:29:22;101537.09;;;11.03;61.99
30516;BME280;17297;54.022;10.760;2024-01-25T01:31:47;101548.88;;;11.02;61.91
30516;BME280;17297;54.022;10.760;2024-01-25T01:34:12;101539.13;;;11.01;61.89
30516;BME280;17297;54.022;10.760;2024-01-25T01:36:38;101549.06;;;11.01;61.90
30516;BME280;17297;54.022;10.760;2024-01-25T01:39:04;101550.09;;;11.00;61.67
30516;BME280;17297;54.022;10.760;2024-01-25T01:41:31;101534.09;;;10.98;61.93
30516;BME280;17297;54.022;10.760;2024-01-25T01:43:56;101526.03;;;10.98;61.68
30516;BME280;17297;54.022;10.760;2024-01-25T01:46:32;101550.44;;;10.97;61.98
30516;BME280;17297;54.022;10.760;2024-01-25T01:48:59;101550.44;;;10.97;61.81
30516;BME280;17297;54.022;10.760;2024-01-25T01:51:24;101553.97;;;10.97;61.81
30516;BME280;17297;54.022;10.760;2024-01-25T01:53:50;101572.97;;;10.96;61.69
30516;BME280;17297;54.022;10.760;2024-01-25T01:56:16;101587.25;;;10.96;61.59
30516;BME280;17297;54.022;10.760;2024-01-25T01:58:42;101597.19;;;10.96;61.73
30516;BME280;17297;54.022;10.760;2024-01-25T02:01:08;101606.09;;;10.96;61.77
30516;BME280;17297;54.022;10.760;2024-01-25T02:03:33;101591.81;;;10.96;61.66
30516;BME280;17297;54.022;10.760;2024-01-25T02:06:00;101602.59;;;10.96;61.66
30516;BME280;17297;54.022;10.760;2024-01-25T02:08:29;101603.59;;;10.95;61.81
30516;BME280;17297;54.022;10.760;2024-01-25T02:10:54;101601.75;;;10.95;61.80
30516;BME280;17297;54.022;10.760;2024-01-25T02:13:21;101590.16;;;10.95;61.78
30516;BME280;17297;54.022;10.760;2024-01-25T02:15:46;101615.22;;;10.95;61.59
30516;BME280;17297;54.022;10.760;2024-01-25T02:18:11;101609.81;;;10.95;61.62
30516;BME280;17297;54.022;10.760;2024-01-25T02:20:37;101593.66;;;10.95;61.57
30516;BME280;17297;54.022;10.760;2024-01-25T02:23:02;101604.63;;;10.94;61.76
30516;BME280;17297;54.022;10.760;2024-01-25T02:25:27;101592.00;;;10.94;61.75
30516;BME280;17297;54.022;10.760;2024-01-25T02:27:53;101601.06;;;10.93;61.67
30516;BME280;17297;54.022;10.760;2024-01-25T02:30:18;101611.84;;;10.93;61.54
30516;BME280;17297;54.022;10.760;2024-01-25T02:32:43;101616.38;;;10.93;61.64
30516;BME280;17297;54.022;10.760;2024-01-25T02:35:09;101616.38;;;10.93;61.68
30516;BME280;17297;54.022;10.760;2024-01-25T02:37:34;101623.47;;;10.94;61.46
30516;BME280;17297;54.022;10.760;2024-01-25T02:40:00;101621.63;;;10.94;61.66
30516;BME280;17297;54.022;10.760;2024-01-25T02:42:25;101617.22;;;10.93;61.45
30516;BME280;17297;54.022;10.760;2024-01-25T02:44:50;101620.09;;;10.92;61.47
30516;BME280;17297;54.022;10.760;2024-01-25T02:47:16;101632.72;;;10.91;61.63
30516;BME280;17297;54.022;10.760;2024-01-25T02:49:41;101646.19;;;10.91;61.43
30516;BME280;17297;54.022;10.760;2024-01-25T02:52:06;101646.34;;;10.90;61.64
30516;BME280;17297;54.022;10.760;2024-01-25T02:54:34;101644.69;;;10.89;61.38
30516;BME280;17297;54.022;10.760;2024-01-25T02:57:01;101634.75;;;10.89;61.45
30516;BME280;17297;54.022;10.760;2024-01-25T02:59:27;101639.09;;;10.90;61.60
30516;BME280;17297;54.022;10.760;2024-01-25T03:01:54;101647.19;;;10.90;61.66
30516;BME280;17297;54.022;10.760;2024-01-25T03:04:19;101651.72;;;10.90;61.53
30516;BME280;17297;54.022;10.760;2024-01-25T03:06:44;101657.94;;;10.90;61.55
30516;BME280;17297;54.022;10.760;2024-01-25T03:09:10;101654.44;;;10.90;61.46
30516;BME280;17297;54.022;10.760;2024-01-25T03:11:35;101662.69;;;10.88;61.38
30516;BME280;17297;54.022;10.760;2024-01-25T03:14:00;101680.50;;;10.89;61.44
30516;BME280;17297;54.022;10.760;2024-01-25T03:16:26;101682.38;;;10.89;61.54
30516;BME280;17297;54.022;10.760;2024-01-25T03:18:51;101690.44;;;10.89;61.30
30516;BME280;17297;54.022;10.760;2024-01-25T03:21:16;101705.75;;;10.88;61.54
30516;BME280;17297;54.022;10.760;2024-01-25T03:23:42;101681.53;;;10.88;61.66
30516;BME280;17297;54.022;10.760;2024-01-25T03:26:07;101684.22;;;10.88;61.46
30516;BME280;17297;54.022;10.760;2024-01-25T03:28:35;101689.75;;;10.86;61.56
30516;BME280;17297;54.022;10.760;2024-01-25T03:31:02;101695.00;;;10.88;61.55
30516;BME280;17297;54.022;10.760;2024-01-25T03:33:27;101682.53;;;10.87;61.36
30516;BME280;17297;54.022;10.760;2024-01-25T03:35:54;101692.44;;;10.86;61.51
30516;BME280;17297;54.022;10.760;2024-01-25T03:38:19;101696.84;;;10.88;61.48
30516;BME280;17297;54.022;10.760;2024-01-25T03:40:45;101702.22;;;10.88;61.68
30516;BME280;17297;54.022;10.760;2024-01-25T03:43:10;101698.03;;;10.85;61.62
30516;BME280;17297;54.022;10.760;2024-01-25T03:45:35;101700.72;;;10.85;61.39
30516;BME280;17297;54.022;10.760;2024-01-25T03:48:01;101714.19;;;10.85;61.54
30516;BME280;17297;54.022;10.760;2024-01-25T03:50:27;101709.78;;;10.84;61.39
30516;BME280;17297;54.022;10.760;2024-01-25T03:52:52;101709.78;;;10.84;61.52
30516;BME280;17297;54.022;10.760;2024-01-25T03:55:17;101710.66;;;10.84;61.36
30516;BME280;17297;54.022;10.760;2024-01-25T03:57:44;101707.09;;;10.84;61.47
30516;BME280;17297;54.022;10.760;2024-01-25T04:00:10;101709.78;;;10.84;61.24
30516;BME280;17297;54.022;10.760;2024-01-25T04:02:36;101695.69;;;10.82;61.25
30516;BME280;17297;54.022;10.760;2024-01-25T04:05:01;101692.97;;;10.82;61.26
30516;BME280;17297;54.022;10.760;2024-01-25T04:07:27;101689.47;;;10.81;61.37
30516;BME280;17297;54.022;10.760;2024-01-25T04:09:52;101704.75;;;10.81;61.38
30516;BME280;17297;54.022;10.760;2024-01-25T04:12:18;101714.53;;;10.82;61.21
30516;BME280;17297;54.022;10.760;2024-01-25T04:14:43;101711.97;;;10.80;61.30
30516;BME280;17297;54.022;10.760;2024-01-25T04:17:09;101702.06;;;10.81;61.19
30516;BME280;17297;54.022;10.760;2024-01-25T04:19:35;101701.41;;;10.79;61.10
30516;BME280;17297;54.022;10.760;2024-01-25T04:22:01;101712.16;;;10.79;61.19
30516;BME280;17297;54.022;10.760;2024-01-25T04:24:26;101709.63;;;10.77;61.33
30516;BME280;17297;54.022;10.760;2024-01-25T04:26:52;101703.41;;;10.77;61.11
30516;BME280;17297;54.022;10.760;2024-01-25T04:29:17;101702.75;;;10.75;61.34
30516;BME280;17297;54.022;10.760;2024-01-25T04:31:44;101686.78;;;10.73;61.37
30516;BME280;17297;54.022;10.760;2024-01-25T04:34:10;101701.25;;;10.72;61.31
30516;BME280;17297;54.022;10.760;2024-01-25T04:36:35;101708.50;;;10.72;61.32
30516;BME280;17297;54.022;10.760;2024-01-25T04:39:01;101705.94;;;10.70;61.20
30516;BME280;17297;54.022;10.760;2024-01-25T04:41:26;101722.28;;;10.69;61.37
30516;BME280;17297;54.022;10.760;2024-01-25T04:43:52;101730.34;;;10.69;61.22
30516;BME280;17297;54.022;10.760;2024-01-25T04:46:17;101725.31;;;10.66;61.22
30516;BME280;17297;54.022;10.760;2024-01-25T04:48:42;101733.53;;;10.64;61.32
30516;BME280;17297;54.022;10.760;2024-01-25T04:51:08;101738.91;;;10.64;61.35
30516;BME280;17297;54.022;10.760;2024-01-25T04:53:33;101732.84;;;10.62;61.35
30516;BME280;17297;54.022;10.760;2024-01-25T04:55:58;101739.44;;;10.59;61.38
30516;BME280;17297;54.022;10.760;2024-01-25T04:58:24;101741.44;;;10.57;61.33
30516;BME280;17297;54.022;10.760;2024-01-25T05:00:50;101745.16;;;10.56;61.26
30516;BME280;17297;54.022;10.760;2024-01-25T05:03:15;101745.31;;;10.55;61.43
30516;BME280;17297;54.022;10.760;2024-01-25T05:05:41;101757.94;;;10.54;61.43
30516;BME280;17297;54.022;10.760;2024-01-25T05:08:06;101745.50;;;10.53;61.42
30516;BME280;17297;54.022;10.760;2024-01-25T05:10:31;101762.63;;;10.52;61.36
30516;BME280;17297;54.022;10.760;2024-01-25T05:12:57;101762.47;;;10.54;61.42
30516;BME280;17297;54.022;10.760;2024-01-25T05:15:22;101760.78;;;10.53;61.50
30516;BME280;17297;54.022;10.760;2024-01-25T05:17:47;101780.47;;;10.53;61.51
30516;BME280;17297;54.022;10.760;2024-01-25T05:20:13;101782.28;;;10.53;61.60
30516;BME280;17297;54.022;10.760;2024-01-25T05:22:40;101786.69;;;10.54;61.65
30516;BME280;17297;54.022;10.760;2024-01-25T05:25:07;101804.69;;;10.53;61.48
30516;BME280;17297;54.022;10.760;2024-01-25T05:27:33;101807.19;;;10.55;61.62
30516;BME280;17297;54.022;10.760;2024-01-25T05:29:59;101810.72;;;10.55;61.68
30516;BME280;17297;54.022;10.760;2024-01-25T05:32:24;101819.63;;;10.56;61.71
30516;BME280;17297;54.022;10.760;2024-01-25T05:34:49;101813.41;;;10.55;61.54
30516;BME280;17297;54.022;10.760;2024-01-25T05:37:15;101818.78;;;10.55;61.48
30516;BME280;17297;54.022;10.760;2024-01-25T05:39:40;101810.06;;;10.53;61.63
30516;BME280;17297;54.022;10.760;2024-01-25T05:42:05;101816.44;;;10.52;61.43
30516;BME280;17297;54.022;10.760;2024-01-25T05:44:31;101813.25;;;10.49;61.54
30516;BME280;17297;54.022;10.760;2024-01-25T05:46:56;101825.03;;;10.48;61.50
30516;BME280;17297;54.022;10.760;2024-01-25T05:49:21;101829.56;;;10.47;61.45
30516;BME280;17297;54.022;10.760;2024-01-25T05:51:47;101824.34;;;10.46;61.58
30516;BME280;17297;54.022;10.760;2024-01-25T05:54:12;101841.50;;;10.45;61.53
30516;BME280;17297;54.022;10.760;2024-01-25T05:56:37;101843.34;;;10.44;61.52
30516;BME280;17297;54.022;10.760;2024-01-25T05:59:03;101851.41;;;10.44;61.52
30516;BME280;17297;54.022;10.760;2024-01-25T06:01:28;101856.09;;;10.42;61.52
30516;BME280;17297;54.022;10.760;2024-01-25T06:03:53;101876.78;;;10.42;61.54
30516;BME280;17297;54.022;10.760;2024-01-25T06:06:19;101869.88;;;10.39;61.60
30516;BME280;17297;54.022;10.760;2024-01-25T06:08:44;101883.34;;;10.39;61.58
30516;BME280;17297;54.022;10.760;2024-01-25T06:11:09;101884.16;;;10.39;61.67
30516;BME280;17297;54.022;10.760;2024-01-25T06:13:35;101891.41;;;10.39;61.54
30516;BME280;17297;54.022;10.760;2024-01-25T06:16:00;101901.16;;;10.40;61.61
30516;BME280;17297;54.022;10.760;2024-01-25T06:18:26;101903.00;;;10.39;61.68
30516;BME280;17297;54.022;10.760;2024-01-25T06:20:52;101903.84;;;10.40;61.58
30516;BME280;17297;54.022;10.760;2024-01-25T06:23:17;101916.31;;;10.41;61.66
30516;BME280;17297;54.022;10.760;2024-01-25T06:25:42;101914.44;;;10.42;61.75
30516;BME280;17297;54.022;10.760;2024-01-25T06:28:07;101919.84;;;10.42;61.70
30516;BME280;17297;54.022;10.760;2024-01-25T06:30:33;101913.63;;;10.41;61.80
30516;BME280;17297;54.022;10.760;2024-01-25T06:32:58;101934.13;;;10.42;61.70
30516;BME280;17297;54.022;10.760;2024-01-25T06:35:23;101929.75;;;10.41;61.71
30516;BME280;17297;54.022;10.760;2024-01-25T06:37:49;101944.88;;;10.42;61.82
30516;BME280;17297;54.022;10.760;2024-01-25T06:40:14;101947.56;;;10.42;61.67
30516;BME280;17297;54.022;10.760;2024-01-25T06:42:40;101960.19;;;10.42;61.75
30516;BME280;17297;54.022;10.760;2024-01-25T06:45:05;101959.16;;;10.43;61.79
30516;BME280;17297;54.022;10.760;2024-01-25T06:47:30;101967.09;;;10.44;61.57
30516;BME280;17297;54.022;10.760;2024-01-25T06:49:56;101973.31;;;10.45;61.85
30516;BME280;17297;54.022;10.760;2024-01-25T06:52:21;101980.38;;;10.46;61.79
30516;BME280;17297;54.022;10.760;2024-01-25T06:54:46;101973.13;;;10.46;61.57
30516;BME280;17297;54.022;10.760;2024-01-25T06:57:12;101987.44;;;10.47;61.64
30516;BME280;17297;54.022;10.760;2024-01-25T06:59:39;101998.22;;;10.47;61.78
30516;BME280;17297;54.022;10.760;2024-01-25T07:02:05;101986.56;;;10.46;61.72
30516;BME280;17297;54.022;10.760;2024-01-25T07:04:30;102004.44;;;10.47;61.61
30516;BME280;17297;54.022;10.760;2024-01-25T07:06:55;101989.28;;;10.46;61.65
30516;BME280;17297;54.022;10.760;2024-01-25T07:09:21;102007.13;;;10.47;61.74
30516;BME280;17297;54.022;10.760;2024-01-25T07:11:46;102015.19;;;10.47;61.70
30516;BME280;17297;54.022;10.760;2024-01-25T07:14:11;102003.59;;;10.47;61.60
30516;BME280;17297;54.022;10.760;2024-01-25T07:16:37;102031.34;;;10.47;61.67
30516;BME280;17297;54.022;10.760;2024-01-25T07:19:03;102026.78;;;10.48;61.73
30516;BME280;17297;54.022;10.760;2024-01-25T07:21:28;102019.72;;;10.47;61.66
30516;BME280;17297;54.022;10.760;2024-01-25T07:23:57;102029.47;;;10.48;61.47
30516;BME280;17297;54.022;10.760;2024-01-25T07:26:22;102020.56;;;10.47;61.51
30516;BME280;17297;54.022;10.760;2024-01-25T07:28:48;102035.88;;;10.47;61.54
30516;BME280;17297;54.022;10.760;2024-01-25T07:31:14;102037.69;;;10.46;61.62
30516;BME280;17297;54.022;10.760;2024-01-25T07:33:39;102037.69;;;10.46;61.46
30516;BME280;17297;54.022;10.760;2024-01-25T07:36:05;102057.41;;;10.47;61.57
30516;BME280;17297;54.022;10.760;2024-01-25T07:38:30;102042.25;;;10.46;61.80
30516;BME280;17297;54.022;10.760;2024-01-25T07:40:55;102046.63;;;10.47;61.60
30516;BME280;17297;54.022;10.760;2024-01-25T07:43:21;102057.22;;;10.48;61.61
30516;BME280;17297;54.022;10.760;2024-01-25T07:45:46;102064.97;;;10.51;61.67
30516;BME280;17297;54.022;10.760;2024-01-25T07:48:11;102072.72;;;10.54;61.58
30516;BME280;17297;54.022;10.760;2024-01-25T07:50:37;102062.47;;;10.58;61.65
30516;BME280;17297;54.022;10.760;2024-01-25T07:53:02;102054.91;;;10.61;61.74
30516;BME280;17297;54.022;10.760;2024-01-25T07:55:28;102047.53;;;10.63;61.56
30516;BME280;17297;54.022;10.760;2024-01-25T07:57:55;102062.34;;;10.68;61.49
30516;BME280;17297;54.022;10.760;2024-01-25T08:00:20;102059.34;;;10.71;61.57
30516;BME280;17297;54.022;10.760;2024-01-25T08:02:45;102064.91;;;10.77;61.60
30516;BME280;17297;54.022;10.760;2024-01-25T08:05:11;102055.84;;;10.86;61.44
30516;BME280;17297;54.022;10.760;2024-01-25T08:07:36;102068.53;;;10.94;61.33
30516;BME280;17297;54.022;10.760;2024-01-25T08:10:03;102073.25;;;11.00;61.28
30516;BME280;17297;54.022;10.760;2024-01-25T08:12:29;102083.69;;;11.03;61.02
30516;BME280;17297;54.022;10.760;2024-01-25T08:14:55;102093.31;;;11.06;61.09
30516;BME280;17297;54.022;10.760;2024-01-25T08:17:20;102074.97;;;11.09;61.12
30516;BME280;17297;54.022;10.760;2024-01-25T08:19:45;102078.16;;;11.13;61.02
30516;BME280;17297;54.022;10.760;2024-01-25T08:22:11;102094.00;;;11.16;61.04
30516;BME280;17297;54.022;10.760;2024-01-25T08:24:36;102078.69;;;11.17;60.93
30516;BME280;17297;54.022;10.760;2024-01-25T08:27:02;102088.44;;;11.18;60.84
30516;BME280;17297;54.022;10.760;2024-01-25T08:29:27;102090.16;;;11.19;60.76
30516;BME280;17297;54.022;10.760;2024-01-25T08:31:53;102094.00;;;11.24;61.03
30516;BME280;17297;54.022;10.760;2024-01-25T08:34:18;102093.69;;;11.27;60.87
30516;BME280;17297;54.022;10.760;2024-01-25T08:36:44;102096.91;;;11.31;60.92
30516;BME280;17297;54.022;10.760;2024-01-25T08:39:09;102096.56;;;11.34;60.97
30516;BME280;17297;54.022;10.760;2024-01-25T08:41:34;102104.84;;;11.41;60.75
30516;BME280;17297;54.022;10.760;2024-01-25T08:44:00;102090.53;;;11.48;60.63
30516;BME280;17297;54.022;10.760;2024-01-25T08:46:25;102106.53;;;11.58;60.73
30516;BME280;17297;54.022;10.760;2024-01-25T08:48:50;102110.28;;;11.65;60.55
30516;BME280;17297;54.022;10.760;2024-01-25T08:51:16;102112.28;;;11.71;60.47
30516;BME280;17297;54.022;10.760;2024-01-25T08:53:41;102117.50;;;11.73;60.41
30516;BME280;17297;54.022;10.760;2024-01-25T08:56:06;102118.53;;;11.72;60.23
30516;BME280;17297;54.022;10.760;2024-01-25T08:58:32;102120.53;;;11.70;60.26
30516;BME280;17297;54.022;10.760;2024-01-25T09:00:57;102114.47;;;11.68;60.18
30516;BME280;17297;54.022;10.760;2024-01-25T09:03:23;102120.88;;;11.67;60.21
30516;BME280;17297;54.022;10.760;2024-01-25T09:05:48;102131.66;;;11.67;60.42
30516;BME280;17297;54.022;10.760;2024-01-25T09:08:14;102126.25;;;11.67;60.30
30516;BME280;17297;54.022;10.760;2024-01-25T09:10:41;102118.34;;;11.65;60.34
30516;BME280;17297;54.022;10.760;2024-01-25T09:13:06;102126.09;;;11.60;60.31
30516;BME280;17297;54.022;10.760;2024-01-25T09:15:32;102140.72;;;11.57;60.27
30516;BME280;17297;54.022;10.760;2024-01-25T09:17:57;102139.38;;;11.53;60.34
30516;BME280;17297;54.022;10.760;2024-01-25T09:20:22;102150.50;;;11.50;60.11
30516;BME280;17297;54.022;10.760;2024-01-25T09:22:48;102158.91;;;11.47;60.37
30516;BME280;17297;54.022;10.760;2024-01-25T09:25:13;102154.69;;;11.45;60.25
30516;BME280;17297;54.022;10.760;2024-01-25T09:27:38;102163.28;;;11.40;60.32
30516;BME280;17297;54.022;10.760;2024-01-25T09:30:07;102167.13;;;11.38;60.32
30516;BME280;17297;54.022;10.760;2024-01-25T09:32:33;102168.31;;;11.35;60.23
30516;BME280;17297;54.022;10.760;2024-01-25T09:34:58;102179.41;;;11.32;60.45
30516;BME280;17297;54.022;10.760;2024-01-25T09:37:24;102178.72;;;11.30;60.36
30516;BME280;17297;54.022;10.760;2024-01-25T09:39:50;102174.50;;;11.27;60.56
30516;BME280;17297;54.022;10.760;2024-01-25T09:42:17;102188.28;;;11.24;60.55
30516;BME280;17297;54.022;10.760;2024-01-25T09:44:43;102200.78;;;11.25;60.56
30516;BME280;17297;54.022;10.760;2024-01-25T09:47:08;102201.09;;;11.22;60.44
30516;BME280;17297;54.022;10.760;2024-01-25T09:49:34;102206.47;;;11.22;60.71
30516;BME280;17297;54.022;10.760;2024-01-25T09:52:02;102198.72;;;11.19;60.76
30516;BME280;17297;54.022;10.760;2024-01-25T09:54:34;102202.25;;;11.20;60.59
30516;BME280;17297;54.022;10.760;2024-01-25T09:57:03;102184.56;;;11.17;60.63
30516;BME280;17297;54.022;10.760;2024-01-25T09:59:31;102198.19;;;11.16;60.71
30516;BME280;17297;54.022;10.760;2024-01-25T10:01:56;102194.63;;;11.15;60.69
30516;BME280;17297;54.022;10.760;2024-01-25T10:04:22;102200.19;;;11.14;60.58
30516;BME280;17297;54.022;10.760;2024-01-25T10:06:49;102204.56;;;11.15;60.49
30516;BME280;17297;54.022;10.760;2024-01-25T10:09:14;102209.97;;;11.15;60.60
30516;BME280;17297;54.022;10.760;2024-01-25T10:11:40;102218.88;;;11.15;60.81
30516;BME280;17297;54.022;10.760;2024-01-25T10:14:05;102229.66;;;11.15;60.57
30516;BME280;17297;54.022;10.760;2024-01-25T10:16:32;102237.72;;;11.15;60.83
30516;BME280;17297;54.022;10.760;2024-01-25T10:18:57;102238.59;;;11.16;60.88
30516;BME280;17297;54.022;10.760;2024-01-25T10:21:23;102241.97;;;11.18;60.85
30516;BME280;17297;54.022;10.760;2024-01-25T10:23:48;102239.13;;;11.19;60.77
30516;BME280;17297;54.022;10.760;2024-01-25T10:26:15;102244.34;;;11.21;60.94
30516;BME280;17297;54.022;10.760;2024-01-25T10:28:41;102245.03;;;11.23;60.82
30516;BME280;17297;54.022;10.760;2024-01-25T10:31:07;102248.41;;;11.25;60.91
30516;BME280;17297;54.022;10.760;2024-01-25T10:33:34;102252.78;;;11.26;60.84
30516;BME280;17297;54.022;10.760;2024-01-25T10:36:00;102253.63;;;11.26;60.93
30516;BME280;17297;54.022;10.760;2024-01-25T10:38:33;102245.53;;;11.26;60.88
30516;BME280;17297;54.022;10.760;2024-01-25T10:41:01;102257.00;;;11.28;60.69
30516;BME280;17297;54.022;10.760;2024-01-25T10:43:27;102254.31;;;11.28;60.84
30516;BME280;17297;54.022;10.760;2024-01-25T10:45:53;102247.91;;;11.29;60.73
30516;BME280;17297;54.022;10.760;2024-01-25T10:48:21;102253.31;;;11.29;60.82
30516;BME280;17297;54.022;10.760;2024-01-25T10:50:48;102249.78;;;11.29;60.67
30516;BME280;17297;54.022;10.760;2024-01-25T10:53:14;102252.47;;;11.29;60.68
30516;BME280;17297;54.022;10.760;2024-01-25T10:55:40;102259.84;;;11.27;60.75
30516;BME280;17297;54.022;10.760;2024-01-25T10:58:07;102252.63;;;11.27;60.87
30516;BME280;17297;54.022;10.760;2024-01-25T11:00:34;102269.78;;;11.26;60.79
30516;BME280;17297;54.022;10.760;2024-01-25T11:03:00;102267.41;;;11.23;60.76
30516;BME280;17297;54.022;10.760;2024-01-25T11:05:26;102264.72;;;11.23;60.58
30516;BME280;17297;54.022;10.760;2024-01-25T11:07:52;102266.41;;;11.24;60.76
30516;BME280;17297;54.022;10.760;2024-01-25T11:10:21;102268.13;;;11.25;60.62
30516;BME280;17297;54.022;10.760;2024-01-25T11:13:01;102264.41;;;11.26;60.78
30516;BME280;17297;54.022;10.760;2024-01-25T11:15:35;102259.19;;;11.25;60.79
30516;BME280;17297;54.022;10.760;2024-01-25T11:18:02;102265.25;;;11.27;60.87
30516;BME280;17297;54.022;10.760;2024-01-25T11:20:29;102254.16;;;11.30;60.85
30516;BME280;17297;54.022;10.760;2024-01-25T11:23:05;102254.84;;;11.32;60.87
30516;BME280;17297;54.022;10.760;2024-01-25T11:25:33;102250.97;;;11.35;60.71
30516;BME280;17297;54.022;10.760;2024-01-25T11:28:00;102248.13;;;11.36;60.84
30516;BME280;17297;54.022;10.760;2024-01-25T11:30:26;102262.28;;;11.38;60.87
30516;BME280;17297;54.022;10.760;2024-01-25T11:32:52;102259.25;;;11.41;60.89
30516;BME280;17297;54.022;10.760;2024-01-25T11:35:17;102272.56;;;11.43;61.08
30516;BME280;17297;54.022;10.760;2024-01-25T11:37:45;102264.31;;;11.44;60.93
30516;BME280;17297;54.022;10.760;2024-01-25T11:40:11;102258.94;;;11.44;60.75
30516;BME280;17297;54.022;10.760;2024-01-25T11:42:38;102250.16;;;11.42;60.76
30516;BME280;17297;54.022;10.760;2024-01-25T11:45:08;102260.28;;;11.40;60.68
30516;BME280;17297;54.022;10.760;2024-01-25T11:50:11;102275.44;;;11.41;60.73
30516;BME280;17297;54.022;10.760;2024-01-25T11:52:37;102274.41;;;11.42;60.79
30516;BME280;17297;54.022;10.760;2024-01-25T11:55:03;102278.47;;;11.46;60.65
30516;BME280;17297;54.022;10.760;2024-01-25T11:57:35;102278.13;;;11.49;60.93
30516;BME280;17297;54.022;10.760;2024-01-25T12:00:02;102271.59;;;11.52;60.77
30516;BME280;17297;54.022;10.760;2024-01-25T12:02:33;102275.66;;;11.56;60.76
30516;BME280;17297;54.022;10.760;2024-01-25T12:04:59;102276.19;;;11.60;60.68
30516;BME280;17297;54.022;10.760;2024-01-25T12:07:24;102278.56;;;11.63;60.73
30516;BME280;17297;54.022;10.760;2024-01-25T12:10:07;102273.81;;;11.65;60.77
30516;BME280;17297;54.022;10.760;2024-01-25T12:12:35;102284.28;;;11.68;60.61
30516;BME280;17297;54.022;10.760;2024-01-25T12:15:03;102281.44;;;11.69;60.94
30516;BME280;17297;54.022;10.760;2024-01-25T12:17:30;102288.50;;;11.70;60.73
30516;BME280;17297;54.022;10.760;2024-01-25T12:19:56;102288.34;;;11.72;60.67
30516;BME280;17297;54.022;10.760;2024-01-25T12:22:22;102282.78;;;11.73;60.77
30516;BME280;17297;54.022;10.760;2024-01-25T12:24:47;102290.72;;;11.75;60.71
30516;BME280;17297;54.022;10.760;2024-01-25T12:27:15;102297.97;;;11.74;60.56
30516;BME280;17297;54.022;10.760;2024-01-25T12:29:40;102297.81;;;11.76;60.48
30516;BME280;17297;54.022;10.760;2024-01-25T12:32:06;102299.34;;;11.78;60.76
30516;BME280;17297;54.022;10.760;2024-01-25T12:34:34;102304.53;;;11.80;60.69
30516;BME280;17297;54.022;10.760;2024-01-25T12:36:59;102301.69;;;11.82;60.72